Time;durP1;ratioP1;P1;durP2;ratioP2;P2;SDS_P1;SDS_P2;PMS_P1;PMS_P2;Temp;Humidity;BMP_temperature;BMP_pressure;BME280_temperature;BME280_humidity;BME280_pressure;Samples;Min_cycle;Max_cycle;Signal;HPM_P1;HPM_P2
2021/09/23 00:00:50;;;;;;;24.08;19.95;;;13.20;99.90;;;;;;2066597;28;20073;-72
2021/09/23 00:01:51;;;;;;;27.02;21.67;;;13.20;99.90;;;;;;2065281;28;20482;-72
2021/09/23 00:03:58;;;;;;;21.30;18.30;;;13.10;99.90;;;;;;2072225;28;20065;-72
2021/09/23 00:04:58;;;;;;;20.80;16.80;;;13.10;99.90;;;;;;2071743;28;20026;-72
2021/09/23 00:05:59;;;;;;;21.60;18.13;;;13.10;99.90;;;;;;2063883;28;20490;-72
2021/09/23 00:07:03;;;;;;;23.52;17.77;;;13.10;99.90;;;;;;2064144;28;20038;-72
2021/09/23 00:08:04;;;;;;;23.05;18.83;;;13.10;99.90;;;;;;2063786;28;20027;-72
2021/09/23 00:09:06;;;;;;;23.65;19.00;;;13.10;99.90;;;;;;2063963;28;20084;-72
2021/09/23 00:10:09;;;;;;;24.55;19.75;;;13.10;99.90;;;;;;2063921;28;20026;-72
2021/09/23 00:11:10;;;;;;;24.92;19.38;;;13.10;99.90;;;;;;2064264;28;20459;-73
2021/09/23 00:12:10;;;;;;;22.98;19.42;;;13.10;99.90;;;;;;2067790;28;20429;-72
2021/09/23 00:13:11;;;;;;;22.17;17.90;;;13.10;99.90;;;;;;2070541;28;20485;-72
2021/09/23 00:14:12;;;;;;;25.95;21.70;;;13.10;99.90;;;;;;2063703;28;20050;-72
2021/09/23 00:15:15;;;;;;;26.98;21.17;;;13.10;99.90;;;;;;2064163;28;20033;-72
2021/09/23 00:16:15;;;;;;;29.42;21.35;;;13.10;99.90;;;;;;2063406;28;20030;-72
2021/09/23 00:17:16;;;;;;;22.55;19.63;;;13.10;99.90;;;;;;2063698;28;20018;-72
2021/09/23 00:18:17;;;;;;;25.40;20.38;;;13.10;99.90;;;;;;2063551;28;20034;-72
2021/09/23 00:19:19;;;;;;;23.85;20.27;;;13.10;99.90;;;;;;2064097;28;20096;-72
2021/09/23 00:20:25;;;;;;;23.35;18.92;;;13.10;99.90;;;;;;2063753;28;20089;-72
2021/09/23 00:21:26;;;;;;;26.55;19.02;;;13.10;99.90;;;;;;2064136;28;20026;-72
2021/09/23 00:22:26;;;;;;;23.00;18.38;;;13.00;99.90;;;;;;2069696;28;20470;-72
2021/09/23 00:23:27;;;;;;;21.42;17.35;;;13.00;99.90;;;;;;2079405;28;20029;-72
2021/09/23 00:24:27;;;;;;;22.55;18.38;;;13.00;99.90;;;;;;2078832;28;20454;-72
2021/09/23 00:25:28;;;;;;;24.13;18.83;;;13.00;99.90;;;;;;2064036;28;20034;-72
2021/09/23 00:26:29;;;;;;;25.45;21.10;;;13.00;99.90;;;;;;2064155;28;20105;-72
2021/09/23 00:27:30;;;;;;;29.42;21.98;;;13.00;99.90;;;;;;2063844;28;20022;-72
2021/09/23 00:28:30;;;;;;;24.25;18.80;;;13.00;99.90;;;;;;2062750;28;20065;-72
2021/09/23 00:29:31;;;;;;;31.85;24.20;;;13.00;99.90;;;;;;2055209;28;20045;-72
2021/09/23 00:30:32;;;;;;;22.35;19.30;;;13.00;99.90;;;;;;2063050;28;20450;-72
2021/09/23 00:31:33;;;;;;;33.58;24.88;;;13.00;99.90;;;;;;2062965;28;20022;-72
2021/09/23 00:32:34;;;;;;;26.13;20.98;;;13.00;99.90;;;;;;2069757;28;20032;-72
2021/09/23 00:33:34;;;;;;;24.08;19.00;;;12.90;99.90;;;;;;2063925;28;20034;-72
2021/09/23 00:34:35;;;;;;;26.67;22.25;;;12.90;99.90;;;;;;2064163;28;20061;-72
2021/09/23 00:35:36;;;;;;;32.55;24.75;;;13.00;99.90;;;;;;2063788;28;20431;-72
2021/09/23 00:36:36;;;;;;;28.33;22.35;;;12.90;99.90;;;;;;2078968;28;20071;-72
2021/09/23 00:37:37;;;;;;;28.10;22.33;;;12.90;99.90;;;;;;2079624;28;20060;-72
2021/09/23 00:38:38;;;;;;;27.23;23.85;;;12.90;99.90;;;;;;2071315;28;20022;-72
2021/09/23 00:39:38;;;;;;;25.85;22.40;;;12.90;99.90;;;;;;2071798;28;20076;-72
2021/09/23 00:40:39;;;;;;;32.45;26.17;;;12.90;99.90;;;;;;2071823;28;20026;-72
2021/09/23 00:41:39;;;;;;;34.35;27.30;;;12.90;99.90;;;;;;2072059;28;20465;-72
2021/09/23 00:42:41;;;;;;;35.17;26.30;;;12.90;99.90;;;;;;2064522;28;20487;-72
2021/09/23 00:43:42;;;;;;;38.03;28.05;;;12.90;99.90;;;;;;2063827;28;20188;-72
2021/09/23 00:44:54;;;;;;;34.35;26.20;;;12.90;99.90;;;;;;2063772;28;20478;-72
2021/09/23 00:45:54;;;;;;;37.08;27.30;;;12.90;99.90;;;;;;2063686;28;20030;-72
2021/09/23 00:46:55;;;;;;;32.25;22.70;;;12.90;99.90;;;;;;2063141;28;20030;-72
2021/09/23 00:47:56;;;;;;;35.97;30.10;;;12.90;99.90;;;;;;2063157;28;20027;-72
2021/09/23 00:48:56;;;;;;;33.63;26.48;;;12.90;99.90;;;;;;2065499;28;20077;-72
2021/09/23 00:49:57;;;;;;;39.38;30.58;;;12.90;99.90;;;;;;2070999;28;20143;-72
2021/09/23 00:51:00;;;;;;;41.80;31.95;;;12.90;99.90;;;;;;2066111;28;20030;-72
2021/09/23 00:52:01;;;;;;;44.30;33.28;;;12.90;99.90;;;;;;2064125;28;20031;-72
2021/09/23 00:53:01;;;;;;;40.47;30.92;;;12.90;99.90;;;;;;2064151;28;20495;-72
2021/09/23 00:54:03;;;;;;;43.20;31.30;;;12.90;99.90;;;;;;2063647;28;20054;-72
2021/09/23 00:55:05;;;;;;;46.35;31.75;;;12.90;99.90;;;;;;2063649;28;20080;-72
2021/09/23 00:56:06;;;;;;;45.47;32.33;;;12.90;99.90;;;;;;2063501;28;20022;-72
2021/09/23 00:57:06;;;;;;;39.40;31.45;;;12.90;99.90;;;;;;2064048;28;20023;-72
2021/09/23 00:58:07;;;;;;;37.90;30.55;;;12.90;99.90;;;;;;2071198;28;20041;-72
2021/09/23 00:59:07;;;;;;;39.10;32.15;;;12.90;99.90;;;;;;2071923;28;20825;-72
2021/09/23 01:00:11;;;;;;;40.78;30.98;;;12.90;99.90;;;;;;2070672;28;20026;-72
2021/09/23 01:01:13;;;;;;;40.05;30.35;;;12.90;99.90;;;;;;2063979;28;20018;-73
2021/09/23 01:02:14;;;;;;;37.92;30.08;;;12.90;99.90;;;;;;2066029;28;20022;-72
2021/09/23 01:03:14;;;;;;;38.17;30.98;;;12.90;99.90;;;;;;2068465;28;20079;-72
2021/09/23 01:04:15;;;;;;;39.65;28.73;;;12.90;99.90;;;;;;2070036;28;20099;-72
2021/09/23 01:05:15;;;;;;;35.25;28.65;;;13.00;99.90;;;;;;2068914;28;20104;-72
2021/09/23 01:06:16;;;;;;;38.40;29.35;;;13.00;99.90;;;;;;2066808;28;20056;-72
2021/09/23 01:07:18;;;;;;;36.47;29.33;;;13.00;99.90;;;;;;2065731;28;20093;-72
2021/09/23 01:08:19;;;;;;;37.05;29.17;;;13.00;99.90;;;;;;2063024;28;20021;-73
2021/09/23 01:09:20;;;;;;;34.30;28.17;;;13.00;99.90;;;;;;2063512;28;20030;-72
2021/09/23 01:10:21;;;;;;;36.80;29.17;;;13.00;99.90;;;;;;2063251;28;20030;-72
2021/09/23 01:11:23;;;;;;;36.22;28.98;;;13.00;99.90;;;;;;2063438;28;20018;-72
2021/09/23 01:12:25;;;;;;;34.83;28.52;;;13.00;99.90;;;;;;2068416;28;20410;-72
2021/09/23 01:13:25;;;;;;;40.55;28.17;;;13.00;99.90;;;;;;2070365;28;20022;-72
2021/09/23 01:14:26;;;;;;;36.30;28.13;;;13.00;99.90;;;;;;2062817;28;20034;-72
2021/09/23 01:15:27;;;;;;;32.70;28.13;;;13.00;99.90;;;;;;2070476;28;20466;-72
2021/09/23 01:16:27;;;;;;;35.03;27.45;;;13.00;99.90;;;;;;2071562;28;20026;-72
2021/09/23 01:17:28;;;;;;;31.90;27.27;;;13.00;99.90;;;;;;2071994;28;20025;-72
2021/09/23 01:18:28;;;;;;;35.83;26.63;;;13.00;99.90;;;;;;2070959;28;20029;-72
2021/09/23 01:19:30;;;;;;;32.35;26.67;;;13.10;99.90;;;;;;2071807;28;20053;-72
2021/09/23 01:20:31;;;;;;;28.35;24.92;;;13.10;99.90;;;;;;2071654;28;20045;-72
2021/09/23 01:21:31;;;;;;;31.27;25.42;;;13.10;99.90;;;;;;2068172;28;20033;-72
2021/09/23 01:22:32;;;;;;;32.95;26.38;;;13.10;99.90;;;;;;2065512;28;20022;-72
2021/09/23 01:23:37;;;;;;;32.67;25.75;;;13.10;99.90;;;;;;2071919;28;20026;-72
2021/09/23 01:24:39;;;;;;;30.33;24.42;;;13.10;99.90;;;;;;2068593;28;20030;-72
2021/09/23 01:25:39;;;;;;;31.92;26.33;;;13.10;99.90;;;;;;2063674;28;20515;-72
2021/09/23 01:26:40;;;;;;;31.13;25.48;;;13.10;99.90;;;;;;2063332;28;20561;-72
2021/09/23 01:27:40;;;;;;;33.88;26.48;;;13.10;99.90;;;;;;2063744;28;20026;-72
2021/09/23 01:28:41;;;;;;;32.13;25.20;;;13.10;99.90;;;;;;2062975;28;20359;-72
2021/09/23 01:29:43;;;;;;;31.02;24.75;;;13.10;99.90;;;;;;2063433;28;20052;-73
2021/09/23 01:30:43;;;;;;;30.58;24.50;;;13.10;99.90;;;;;;2062541;28;20119;-72
2021/09/23 01:31:45;;;;;;;29.70;25.08;;;13.20;99.90;;;;;;2063080;28;20034;-72
2021/09/23 01:32:45;;;;;;;31.90;26.42;;;13.20;99.90;;;;;;2066728;28;20026;-72
2021/09/23 01:33:46;;;;;;;33.13;25.98;;;13.20;99.90;;;;;;2071441;28;20030;-73
2021/09/23 01:34:47;;;;;;;28.85;24.83;;;13.20;99.90;;;;;;2065634;28;20026;-72
2021/09/23 01:35:47;;;;;;;31.15;26.05;;;13.20;99.90;;;;;;2063938;28;20031;-72
2021/09/23 01:36:48;;;;;;;30.65;25.17;;;13.20;99.90;;;;;;2063538;28;20031;-72
2021/09/23 01:37:49;;;;;;;32.47;26.35;;;13.20;99.90;;;;;;2063523;28;20022;-72
2021/09/23 01:38:52;;;;;;;27.55;22.23;;;13.20;99.90;;;;;;2062402;28;20034;-72
2021/09/23 01:39:52;;;;;;;30.05;25.05;;;13.20;99.90;;;;;;2063036;28;20029;-72
2021/09/23 01:40:54;;;;;;;34.17;25.00;;;13.20;99.90;;;;;;2063158;28;20025;-72
2021/09/23 01:41:56;;;;;;;31.67;24.65;;;13.20;99.90;;;;;;2063656;28;20030;-72
2021/09/23 01:42:56;;;;;;;28.85;25.50;;;13.20;99.90;;;;;;2068271;28;20026;-72
2021/09/23 01:43:57;;;;;;;28.17;23.35;;;13.20;99.90;;;;;;2071812;28;20048;-72
2021/09/23 01:44:57;;;;;;;27.00;24.15;;;13.20;99.90;;;;;;2071141;28;20458;-72
2021/09/23 01:45:58;;;;;;;27.63;22.73;;;13.20;99.90;;;;;;2067208;28;20130;-72
2021/09/23 01:46:59;;;;;;;30.33;24.80;;;13.20;99.90;;;;;;2063500;28;20422;-73
2021/09/23 01:47:59;;;;;;;28.42;24.02;;;13.20;99.90;;;;;;2063265;28;20026;-72
2021/09/23 01:49:00;;;;;;;26.35;21.58;;;13.20;99.90;;;;;;2065415;28;20034;-73
2021/09/23 01:50:01;;;;;;;24.15;21.45;;;13.20;99.90;;;;;;2071942;28;20505;-72
2021/09/23 01:51:01;;;;;;;29.00;22.65;;;13.20;99.90;;;;;;2071350;28;20105;-72
2021/09/23 01:52:02;;;;;;;27.45;22.20;;;13.20;99.90;;;;;;2070769;28;20025;-72
2021/09/23 01:53:03;;;;;;;21.90;19.25;;;13.20;99.90;;;;;;2065192;28;20503;-72
2021/09/23 01:54:04;;;;;;;26.58;22.05;;;13.20;99.90;;;;;;2063294;28;20033;-72
2021/09/23 01:55:04;;;;;;;30.20;24.65;;;13.20;99.90;;;;;;2063430;28;20109;-72
2021/09/23 01:56:05;;;;;;;30.42;26.45;;;13.20;99.90;;;;;;2070763;28;20105;-72
2021/09/23 01:57:05;;;;;;;30.77;24.88;;;13.20;99.90;;;;;;2062818;28;20022;-72
2021/09/23 01:58:07;;;;;;;28.38;24.70;;;13.20;99.90;;;;;;2070558;28;20442;-72
2021/09/23 01:59:07;;;;;;;30.25;23.83;;;13.20;99.90;;;;;;2070927;28;20014;-72
2021/09/23 02:00:08;;;;;;;32.47;25.00;;;13.20;99.90;;;;;;2070364;28;20065;-72
2021/09/23 02:01:09;;;;;;;30.17;23.85;;;13.10;99.90;;;;;;2063581;28;20022;-72
2021/09/23 02:02:10;;;;;;;24.85;19.98;;;13.20;99.90;;;;;;2063326;28;20081;-73
2021/09/23 02:03:10;;;;;;;29.80;23.38;;;13.10;99.90;;;;;;2068977;28;20080;-72
2021/09/23 02:04:11;;;;;;;24.05;19.70;;;13.10;99.90;;;;;;2070688;28;20026;-73
2021/09/23 02:05:11;;;;;;;33.88;24.17;;;13.10;99.90;;;;;;2069674;28;20022;-72
2021/09/23 02:06:12;;;;;;;28.60;22.75;;;13.10;99.90;;;;;;2063385;28;20526;-72
2021/09/23 02:07:12;;;;;;;29.30;23.67;;;13.10;99.90;;;;;;2063345;28;20493;-72
2021/09/23 02:08:13;;;;;;;21.35;18.90;;;13.10;99.90;;;;;;2069997;28;20149;-72
2021/09/23 02:09:13;;;;;;;25.80;21.50;;;13.10;99.90;;;;;;2071205;28;20018;-72
2021/09/23 02:10:14;;;;;;;23.02;19.75;;;13.10;99.90;;;;;;2063069;28;20044;-72
2021/09/23 02:11:15;;;;;;;26.50;21.33;;;13.10;99.90;;;;;;2063479;28;20030;-72
2021/09/23 02:12:17;;;;;;;26.17;21.38;;;13.10;99.90;;;;;;2063211;28;20022;-73
2021/09/23 02:13:17;;;;;;;25.73;21.67;;;13.10;99.90;;;;;;2070640;28;20025;-72
2021/09/23 02:14:18;;;;;;;28.33;21.38;;;13.10;99.90;;;;;;2071457;28;20054;-72
2021/09/23 02:15:18;;;;;;;26.45;22.05;;;13.10;99.90;;;;;;2066181;28;20049;-72
2021/09/23 02:16:19;;;;;;;24.80;19.98;;;13.10;99.90;;;;;;2066707;28;20021;-72
2021/09/23 02:17:20;;;;;;;26.90;20.42;;;13.10;99.90;;;;;;2063348;28;20097;-72
2021/09/23 02:18:20;;;;;;;25.00;19.80;;;13.00;99.90;;;;;;2062487;28;20019;-72
2021/09/23 02:19:21;;;;;;;24.08;19.77;;;13.00;99.90;;;;;;2063646;28;20376;-72
2021/09/23 02:20:22;;;;;;;22.67;17.60;;;13.00;99.90;;;;;;2063196;28;20022;-72
2021/09/23 02:21:22;;;;;;;29.00;20.88;;;13.00;99.90;;;;;;2063319;28;20106;-72
2021/09/23 02:22:23;;;;;;;28.60;20.58;;;13.00;99.90;;;;;;2063294;28;20068;-72
2021/09/23 02:23:23;;;;;;;24.27;18.33;;;13.00;99.90;;;;;;2064527;28;20042;-72
2021/09/23 02:24:24;;;;;;;20.90;16.65;;;13.00;99.90;;;;;;2063100;28;20434;-72
2021/09/23 02:25:24;;;;;;;22.13;16.80;;;13.00;99.90;;;;;;2062834;28;20149;-72
2021/09/23 02:26:25;;;;;;;21.75;17.58;;;13.00;99.90;;;;;;2063237;28;20367;-72
2021/09/23 02:27:25;;;;;;;21.55;17.10;;;13.00;99.90;;;;;;2063327;28;20030;-72
2021/09/23 02:28:26;;;;;;;20.25;17.52;;;13.00;99.90;;;;;;2062610;28;20026;-72
2021/09/23 02:29:26;;;;;;;20.98;17.13;;;13.00;99.90;;;;;;2062958;28;20104;-72
2021/09/23 02:30:28;;;;;;;18.48;16.45;;;13.00;99.90;;;;;;2062735;28;20072;-72
2021/09/23 02:31:29;;;;;;;20.50;17.13;;;13.00;99.90;;;;;;2062629;28;20026;-72
2021/09/23 02:32:30;;;;;;;19.15;16.85;;;13.00;99.90;;;;;;2063206;28;20026;-73
2021/09/23 02:33:31;;;;;;;19.95;16.92;;;13.00;99.90;;;;;;2062925;28;20034;-72
2021/09/23 02:34:32;;;;;;;20.48;17.08;;;13.00;99.90;;;;;;2063367;28;20034;-72
2021/09/23 02:35:33;;;;;;;18.73;16.60;;;13.00;99.90;;;;;;2063152;28;20030;-72
2021/09/23 02:36:33;;;;;;;19.65;16.40;;;13.00;99.90;;;;;;2063261;28;20022;-72
2021/09/23 02:37:34;;;;;;;20.10;17.15;;;12.90;99.90;;;;;;2063150;28;20105;-72
2021/09/23 02:38:35;;;;;;;22.65;18.98;;;12.90;99.90;;;;;;2062820;28;20031;-72
2021/09/23 02:39:36;;;;;;;20.13;16.23;;;13.00;99.90;;;;;;2062865;28;20029;-72
2021/09/23 02:40:36;;;;;;;19.83;16.35;;;12.90;99.90;;;;;;2063370;28;20022;-72
2021/09/23 02:41:37;;;;;;;20.95;17.90;;;12.90;99.90;;;;;;2063166;28;20422;-72
2021/09/23 02:42:37;;;;;;;20.45;18.27;;;12.90;99.90;;;;;;2064019;28;20022;-72
2021/09/23 02:43:38;;;;;;;22.13;17.98;;;12.90;99.90;;;;;;2071490;28;20057;-72
2021/09/23 02:44:38;;;;;;;19.23;16.45;;;12.90;99.90;;;;;;2070945;28;20132;-72
2021/09/23 02:45:40;;;;;;;18.05;15.25;;;12.90;99.90;;;;;;2070329;28;20044;-72
2021/09/23 02:46:40;;;;;;;23.77;19.85;;;12.90;99.90;;;;;;2063389;28;20125;-72
2021/09/23 02:47:42;;;;;;;20.08;15.98;;;12.90;99.90;;;;;;2062958;28;20031;-72
2021/09/23 02:48:42;;;;;;;19.73;16.25;;;12.90;99.90;;;;;;2062784;28;20076;-72
2021/09/23 02:49:43;;;;;;;21.30;17.73;;;12.80;99.90;;;;;;2071294;28;20095;-72
2021/09/23 02:50:44;;;;;;;21.33;18.38;;;12.80;99.90;;;;;;2071525;28;20429;-73
2021/09/23 02:51:44;;;;;;;22.73;16.67;;;12.80;99.90;;;;;;2070948;28;20026;-72
2021/09/23 02:52:45;;;;;;;20.63;17.13;;;12.80;99.90;;;;;;2072285;28;20053;-72
2021/09/23 02:53:45;;;;;;;20.25;17.02;;;12.80;99.90;;;;;;2071436;28;20112;-72
2021/09/23 02:54:46;;;;;;;21.33;17.90;;;12.80;99.90;;;;;;2073078;28;20030;-72
2021/09/23 02:55:47;;;;;;;20.13;16.67;;;12.80;99.90;;;;;;2067517;28;20030;-73
2021/09/23 02:56:47;;;;;;;20.58;17.27;;;12.70;99.90;;;;;;2065696;28;20526;-72
2021/09/23 02:57:48;;;;;;;18.95;16.95;;;12.70;99.90;;;;;;2069404;28;20022;-72
2021/09/23 02:58:50;;;;;;;18.48;14.77;;;12.70;99.90;;;;;;2064013;28;20037;-72
2021/09/23 02:59:50;;;;;;;18.52;15.70;;;12.70;99.90;;;;;;2064709;28;20022;-72
2021/09/23 03:00:51;;;;;;;21.05;16.60;;;12.70;99.90;;;;;;2064626;28;20046;-72
2021/09/23 03:01:51;;;;;;;20.00;17.15;;;12.70;99.90;;;;;;2064862;28;20069;-72
2021/09/23 03:02:52;;;;;;;19.00;16.38;;;12.70;99.90;;;;;;2066423;28;20037;-73
2021/09/23 03:03:53;;;;;;;18.30;16.33;;;12.60;99.90;;;;;;2070242;28;20030;-72
2021/09/23 03:04:53;;;;;;;17.63;15.32;;;12.60;99.90;;;;;;2072416;28;20038;-73
2021/09/23 03:05:54;;;;;;;17.35;15.55;;;12.60;99.90;;;;;;2065113;28;20053;-72
2021/09/23 03:06:54;;;;;;;17.50;15.02;;;12.60;99.90;;;;;;2069600;28;20038;-72
2021/09/23 03:07:55;;;;;;;18.10;15.95;;;12.60;99.90;;;;;;2064608;28;20309;-72
2021/09/23 03:08:55;;;;;;;18.13;14.93;;;12.60;99.90;;;;;;2063946;28;20030;-72
2021/09/23 03:09:56;;;;;;;21.95;17.88;;;12.50;99.90;;;;;;2064502;28;20049;-72
2021/09/23 03:10:57;;;;;;;21.08;17.80;;;12.60;99.90;;;;;;2064441;28;20030;-72
2021/09/23 03:11:57;;;;;;;19.20;16.42;;;12.60;99.90;;;;;;2072239;28;20541;-72
2021/09/23 03:12:58;;;;;;;20.30;16.45;;;12.50;99.90;;;;;;2072220;28;20030;-72
2021/09/23 03:13:58;;;;;;;19.13;16.15;;;12.50;99.90;;;;;;2064954;28;20042;-72
2021/09/23 03:14:59;;;;;;;20.52;15.77;;;12.50;99.90;;;;;;2064278;28;20018;-72
2021/09/23 03:16:00;;;;;;;20.10;15.38;;;12.50;99.90;;;;;;2064998;28;20030;-72
2021/09/23 03:17:01;;;;;;;16.95;14.77;;;12.50;99.90;;;;;;2064644;28;20022;-72
2021/09/23 03:18:02;;;;;;;17.15;14.35;;;12.50;99.90;;;;;;2064415;28;20031;-72
2021/09/23 03:19:03;;;;;;;15.32;13.18;;;12.50;99.90;;;;;;2063700;28;20030;-72
2021/09/23 03:20:04;;;;;;;16.50;14.80;;;12.50;99.90;;;;;;2063615;28;20114;-72
2021/09/23 03:21:04;;;;;;;17.83;15.13;;;12.50;99.90;;;;;;2063954;28;20023;-72
2021/09/23 03:22:05;;;;;;;17.25;14.60;;;12.50;99.90;;;;;;2064672;28;20109;-72
2021/09/23 03:23:06;;;;;;;19.10;16.00;;;12.40;99.90;;;;;;2067510;28;20026;-72
2021/09/23 03:24:07;;;;;;;18.05;14.07;;;12.40;99.90;;;;;;2072914;28;20024;-72
2021/09/23 03:25:08;;;;;;;16.25;13.18;;;12.40;99.90;;;;;;2065581;28;20474;-73
2021/09/23 03:26:09;;;;;;;14.60;13.02;;;12.40;99.90;;;;;;2066880;28;20363;-72
2021/09/23 03:27:10;;;;;;;14.30;12.02;;;12.40;99.90;;;;;;2064228;28;20026;-72
2021/09/23 03:28:11;;;;;;;14.95;13.35;;;12.40;99.90;;;;;;2064087;28;20506;-72
2021/09/23 03:29:12;;;;;;;14.50;12.52;;;12.40;99.90;;;;;;2064182;28;20109;-72
2021/09/23 03:30:12;;;;;;;14.90;13.32;;;12.40;99.90;;;;;;2064432;28;20022;-73
2021/09/23 03:31:13;;;;;;;16.58;14.25;;;12.40;99.90;;;;;;2064091;28;20030;-72
2021/09/23 03:32:14;;;;;;;15.90;13.77;;;12.40;99.90;;;;;;2064532;28;20455;-72
2021/09/23 03:33:14;;;;;;;15.88;14.10;;;12.40;99.90;;;;;;2064260;28;20475;-72
2021/09/23 03:34:15;;;;;;;15.27;13.68;;;12.40;99.90;;;;;;2064255;28;20023;-73
2021/09/23 03:35:17;;;;;;;14.82;13.15;;;12.40;99.90;;;;;;2064781;28;20023;-72
2021/09/23 03:36:18;;;;;;;14.35;11.73;;;12.30;99.90;;;;;;2064495;28;20022;-72
2021/09/23 03:37:18;;;;;;;17.52;15.30;;;12.30;99.90;;;;;;2064345;28;20046;-72
2021/09/23 03:38:19;;;;;;;15.90;13.13;;;12.30;99.90;;;;;;2063126;28;20077;-72
2021/09/23 03:39:20;;;;;;;15.68;11.82;;;12.30;99.90;;;;;;2063835;28;20026;-72
2021/09/23 03:40:20;;;;;;;16.63;12.90;;;12.30;99.90;;;;;;2064288;28;20056;-72
2021/09/23 03:41:24;;;;;;;15.80;12.35;;;12.30;99.90;;;;;;2063611;28;20029;-72
2021/09/23 03:42:25;;;;;;;14.38;12.85;;;12.30;99.90;;;;;;2063572;28;20030;-72
2021/09/23 03:43:25;;;;;;;16.70;12.73;;;12.30;99.90;;;;;;2070245;28;20556;-72
2021/09/23 03:44:26;;;;;;;13.75;11.65;;;12.30;99.90;;;;;;2072315;28;20169;-72
2021/09/23 03:45:27;;;;;;;12.38;10.80;;;12.30;99.90;;;;;;2071642;28;20022;-72
2021/09/23 03:46:28;;;;;;;14.82;13.25;;;12.30;99.90;;;;;;2064452;28;20048;-72
2021/09/23 03:47:28;;;;;;;15.93;11.95;;;12.30;99.90;;;;;;2064417;28;20030;-73
2021/09/23 03:48:30;;;;;;;14.48;12.10;;;12.20;99.90;;;;;;2063879;28;20111;-72
2021/09/23 03:49:30;;;;;;;13.20;11.75;;;12.20;99.90;;;;;;2070970;28;20083;-72
2021/09/23 03:50:31;;;;;;;13.52;11.57;;;12.20;99.90;;;;;;2069856;28;20532;-72
2021/09/23 03:51:32;;;;;;;13.32;11.80;;;12.20;99.90;;;;;;2055713;28;20027;-72
2021/09/23 03:52:33;;;;;;;14.43;11.32;;;12.20;99.90;;;;;;2068238;28;20528;-72
2021/09/23 03:53:38;;;;;;;15.60;13.70;;;12.20;99.90;;;;;;2071777;28;20030;-73
2021/09/23 03:54:38;;;;;;;15.43;12.18;;;12.30;99.90;;;;;;2072260;28;20097;-72
2021/09/23 03:55:39;;;;;;;13.10;11.70;;;12.20;99.90;;;;;;2068658;28;20038;-73
2021/09/23 03:56:39;;;;;;;13.18;11.48;;;12.20;99.90;;;;;;2064093;28;20053;-72
2021/09/23 03:57:40;;;;;;;14.40;11.63;;;12.20;99.90;;;;;;2069071;28;20045;-72
2021/09/23 03:58:42;;;;;;;16.75;14.20;;;12.20;99.90;;;;;;2071629;28;20113;-72
2021/09/23 03:59:43;;;;;;;15.40;12.88;;;12.20;99.90;;;;;;2072321;28;20113;-72
2021/09/23 04:00:43;;;;;;;15.07;11.95;;;12.20;99.90;;;;;;2066369;28;20026;-73
2021/09/23 04:01:46;;;;;;;14.65;13.02;;;12.20;99.90;;;;;;2063781;28;20072;-72
2021/09/23 04:02:47;;;;;;;14.52;12.80;;;12.20;99.90;;;;;;2063887;28;20511;-73
2021/09/23 04:03:48;;;;;;;12.55;11.20;;;12.20;99.90;;;;;;2072367;28;20030;-72
2021/09/23 04:04:49;;;;;;;16.35;12.40;;;12.20;99.90;;;;;;2072330;28;20030;-73
2021/09/23 04:05:50;;;;;;;16.42;13.88;;;12.20;99.90;;;;;;2063987;28;20026;-72
2021/09/23 04:06:51;;;;;;;15.27;13.20;;;12.20;99.90;;;;;;2063368;28;20022;-72
2021/09/23 04:07:52;;;;;;;17.08;14.27;;;12.20;99.90;;;;;;2064379;28;20034;-72
2021/09/23 04:08:52;;;;;;;17.67;11.23;;;12.20;99.90;;;;;;2063545;28;20035;-72
2021/09/23 04:09:53;;;;;;;13.13;11.52;;;12.20;99.90;;;;;;2064271;28;20023;-72
2021/09/23 04:10:53;;;;;;;15.35;12.77;;;12.20;99.90;;;;;;2064066;28;20176;-72
2021/09/23 04:11:54;;;;;;;13.25;10.95;;;12.20;99.90;;;;;;2064027;28;20056;-72
2021/09/23 04:12:55;;;;;;;19.73;14.02;;;12.20;99.90;;;;;;2064910;28;20030;-72
2021/09/23 04:13:56;;;;;;;18.13;13.73;;;12.20;99.90;;;;;;2071686;28;20032;-72
2021/09/23 04:14:56;;;;;;;16.13;13.93;;;12.20;99.90;;;;;;2071424;28;20029;-72
2021/09/23 04:15:57;;;;;;;17.98;14.40;;;12.20;99.90;;;;;;2072163;28;20038;-72
2021/09/23 04:16:58;;;;;;;16.15;13.32;;;12.20;99.90;;;;;;2072261;28;20100;-72
2021/09/23 04:17:58;;;;;;;17.02;14.18;;;12.20;99.90;;;;;;2071091;28;20096;-72
2021/09/23 04:19:00;;;;;;;15.85;14.07;;;12.20;99.90;;;;;;2063489;28;20034;-72
2021/09/23 04:20:01;;;;;;;18.52;14.93;;;12.20;99.90;;;;;;2063739;28;20034;-72
2021/09/23 04:21:01;;;;;;;16.90;13.73;;;12.20;99.90;;;;;;2063892;28;20121;-72
2021/09/23 04:22:02;;;;;;;16.77;13.85;;;12.20;99.90;;;;;;2064068;28;20106;-72
2021/09/23 04:23:03;;;;;;;16.27;14.07;;;12.20;99.90;;;;;;2065262;28;20861;-72
2021/09/23 04:24:04;;;;;;;18.00;14.13;;;12.20;99.90;;;;;;2071443;28;20037;-72
2021/09/23 04:25:05;;;;;;;16.60;14.85;;;12.20;99.90;;;;;;2072305;28;20073;-72
2021/09/23 04:26:05;;;;;;;18.85;14.30;;;12.20;99.90;;;;;;2070691;28;20105;-73
2021/09/23 04:27:06;;;;;;;18.30;15.02;;;12.20;99.90;;;;;;2064176;28;20045;-72
2021/09/23 04:28:07;;;;;;;15.55;13.88;;;12.20;99.90;;;;;;2062837;28;20025;-73
2021/09/23 04:29:08;;;;;;;21.30;15.73;;;12.20;99.90;;;;;;2063080;28;20136;-72
2021/09/23 04:30:09;;;;;;;19.92;15.10;;;12.20;99.90;;;;;;2063941;28;20038;-72
2021/09/23 04:31:10;;;;;;;18.40;15.45;;;12.20;99.90;;;;;;2063936;28;20018;-72
2021/09/23 04:32:11;;;;;;;21.20;16.10;;;12.20;99.90;;;;;;2063984;28;20030;-72
2021/09/23 04:33:12;;;;;;;18.83;15.60;;;12.20;99.90;;;;;;2066802;28;20056;-72
2021/09/23 04:34:13;;;;;;;19.13;14.52;;;12.20;99.90;;;;;;2071910;28;20022;-72
2021/09/23 04:35:13;;;;;;;20.00;15.73;;;12.20;99.90;;;;;;2071989;28;20018;-72
2021/09/23 04:36:14;;;;;;;18.70;14.48;;;12.20;99.90;;;;;;2067456;28;20026;-73
2021/09/23 04:37:15;;;;;;;16.92;15.00;;;12.20;99.90;;;;;;2063969;28;20061;-73
2021/09/23 04:38:17;;;;;;;17.50;14.63;;;12.30;99.90;;;;;;2063222;28;20034;-72
2021/09/23 04:39:18;;;;;;;17.02;15.07;;;12.30;99.90;;;;;;2063769;28;20024;-72
2021/09/23 04:40:19;;;;;;;18.65;14.68;;;12.30;99.90;;;;;;2063770;28;20049;-72
2021/09/23 04:41:20;;;;;;;22.08;14.00;;;12.30;99.90;;;;;;2064018;28;20026;-72
2021/09/23 04:42:22;;;;;;;16.95;14.88;;;12.30;99.90;;;;;;2063843;28;20026;-72
2021/09/23 04:43:22;;;;;;;17.75;14.45;;;12.30;99.90;;;;;;2065187;28;20031;-72
2021/09/23 04:44:25;;;;;;;19.48;14.05;;;12.30;99.90;;;;;;2063597;28;20083;-72
2021/09/23 04:45:25;;;;;;;15.30;13.70;;;12.30;99.90;;;;;;2064112;28;20018;-72
2021/09/23 04:46:26;;;;;;;15.30;12.98;;;12.30;99.90;;;;;;2063067;28;20498;-73
2021/09/23 04:47:27;;;;;;;15.70;13.23;;;12.30;99.90;;;;;;2063355;28;20050;-73
2021/09/23 04:48:28;;;;;;;17.58;13.77;;;12.30;99.90;;;;;;2062961;28;20018;-73
2021/09/23 04:49:29;;;;;;;17.95;14.05;;;12.30;99.90;;;;;;2070420;28;20049;-72
2021/09/23 04:50:30;;;;;;;14.90;12.48;;;12.30;99.90;;;;;;2071544;28;20022;-72
2021/09/23 04:51:30;;;;;;;16.80;14.25;;;12.30;99.90;;;;;;2072153;28;20125;-72
2021/09/23 04:52:31;;;;;;;14.93;12.35;;;12.30;99.90;;;;;;2066985;28;20026;-72
2021/09/23 04:53:31;;;;;;;14.95;13.27;;;12.30;99.90;;;;;;2064941;28;20093;-72
2021/09/23 04:54:32;;;;;;;21.63;13.27;;;12.30;99.90;;;;;;2063768;28;20080;-72
2021/09/23 04:55:32;;;;;;;15.93;12.18;;;12.30;99.90;;;;;;2063771;28;20113;-72
2021/09/23 04:56:34;;;;;;;18.13;14.15;;;12.30;99.90;;;;;;2063802;28;20041;-73
2021/09/23 04:57:35;;;;;;;18.95;14.20;;;12.30;99.90;;;;;;2067933;28;20032;-73
2021/09/23 04:58:35;;;;;;;17.17;13.85;;;12.30;99.90;;;;;;2071288;28;20022;-72
2021/09/23 04:59:36;;;;;;;16.83;13.93;;;12.30;99.90;;;;;;2071715;28;20018;-72
2021/09/23 05:00:36;;;;;;;16.95;14.98;;;12.30;99.90;;;;;;2066831;28;20109;-72
2021/09/23 05:01:37;;;;;;;17.67;14.68;;;12.30;99.90;;;;;;2064950;28;20193;-72
2021/09/23 05:02:38;;;;;;;17.42;14.82;;;12.30;99.90;;;;;;2064182;28;20077;-73
2021/09/23 05:03:38;;;;;;;16.15;14.02;;;12.30;99.90;;;;;;2069808;28;20033;-72
2021/09/23 05:04:39;;;;;;;19.42;15.15;;;12.30;99.90;;;;;;2071938;28;20040;-72
2021/09/23 05:05:40;;;;;;;19.17;14.80;;;12.30;99.90;;;;;;2064689;28;20030;-72
2021/09/23 05:06:40;;;;;;;16.90;14.05;;;12.30;99.90;;;;;;2062920;28;20035;-72
2021/09/23 05:07:41;;;;;;;16.60;14.57;;;12.30;99.90;;;;;;2063069;28;20022;-73
2021/09/23 05:08:41;;;;;;;17.05;15.07;;;12.30;99.90;;;;;;2062630;28;20034;-73
2021/09/23 05:09:43;;;;;;;17.10;14.23;;;12.30;99.90;;;;;;2063958;28;20031;-73
2021/09/23 05:10:44;;;;;;;17.95;14.45;;;12.30;99.90;;;;;;2063705;28;20451;-72